KNYG

Details ICAO KNYG (NYG)
Name QUANTICO MCAF
Region United States
Timezone America/New_York (UTC-4.0)
Plans Departing 6
Arriving 5
Stats Elevation 11 ft / 3 m (AMSL)
Location 38.503600° -77.305031°
Runways 1
Magnetic Variation 10.597° W
Sunrise 2018-05-23 09:53:01 UTC / 2018-05-23 05:53:01 Local
Sunset 2018-05-24 00:21:49 UTC / 2018-05-23 20:21:49 Local
Advertisement - Login to hide

Runways

ID Width Length Bearing (true) Bearing (mag) Surface Threshold Offset Overrun Length
02 200 ft / 61 m 4,286 ft / 1,306 m 14.58° 25.18° Asphalt 0 ft / 0 m 0 ft / 0 m
20 200 ft / 61 m 4,286 ft / 1,306 m 194.58° 205.18° Asphalt 0 ft / 0 m 125 ft / 38 m

Map

Weather


0- 5 10 15 20 25 30 35+ Temperature / ° C

Clouds and Precipitation
Forecast for 2018-05-23 18:00 UTC. Updated 17 minutes ago

Ground ~20,000 ft ~40,000 ft Winds

METAR

KNYG 231656Z 33010KT 10SM FEW040 BKN060 BKN250 27/17 A3002 RMK AO2 SLP166 T02720172

TAF

TAF AMD KNYG 2315/2415 32006KT 9999 BKN030 BKN050 BKN250 522709 523604 QNH2998INS BECMG 2317/2319 35009KT 9999 SCT030 BKN050 BKN250 522709 523604 QNH3000INS BECMG 2406/2408 VRB06KT SKC 500000 QNH3012INS T27/2318Z T15/2409Z AMD 1540

Frequencies

Ground 121.75 MHz GND
Approach 127.05 MHz ARRIVAL
Tower 118.60 MHz TWR
Approach 124.65 MHz POTOMAC APP/DEP
Warning: Do not use this data for real-world aviation or navigation. No guarantee of current accuracy is given.